createdAt,value
2024-01-27T00:00:13.203Z,3.95
2024-01-27T00:02:39.670Z,3.35
2024-01-27T00:05:06.613Z,6.65
2024-01-27T00:07:33.056Z,4.45
2024-01-27T00:10:00.406Z,4.78
2024-01-27T00:12:27.039Z,3.33
2024-01-27T00:14:53.589Z,2.50
2024-01-27T00:17:24.972Z,4.72
2024-01-27T00:19:51.763Z,2.50
2024-01-27T00:22:18.392Z,1.70
2024-01-27T00:24:44.839Z,2.60
2024-01-27T00:27:11.924Z,4.85
2024-01-27T00:29:38.383Z,2.55
2024-01-27T00:32:04.845Z,3.25
2024-01-27T00:34:31.446Z,1.25
2024-01-27T00:36:58.150Z,1.88
2024-01-27T00:39:24.785Z,1.55
2024-01-27T00:41:52.629Z,5.65
2024-01-27T00:44:19.789Z,5.57
2024-01-27T00:46:46.225Z,3.92
2024-01-27T00:49:12.826Z,8.13
2024-01-27T00:51:39.371Z,5.97
2024-01-27T00:54:05.864Z,8.10
2024-01-27T00:56:32.827Z,4.72
2024-01-27T00:58:59.201Z,5.13
2024-01-27T01:01:25.919Z,4.65
2024-01-27T01:03:52.470Z,3.60
2024-01-27T01:06:19.099Z,5.45
2024-01-27T01:08:45.991Z,6.80
2024-01-27T01:11:12.463Z,3.35
2024-01-27T01:13:38.858Z,3.50
2024-01-27T01:16:05.537Z,5.28
2024-01-27T01:18:32.112Z,5.35
2024-01-27T01:20:58.614Z,6.68
2024-01-27T01:23:25.023Z,2.95
2024-01-27T01:25:51.485Z,4.13
2024-01-27T01:28:17.893Z,5.38
2024-01-27T01:30:44.648Z,1.67
2024-01-27T01:33:11.953Z,1.98
2024-01-27T01:35:38.970Z,2.45
2024-01-27T01:38:05.364Z,3.10
2024-01-27T01:40:31.766Z,2.72
2024-01-27T01:42:59.508Z,1.58
2024-01-27T01:45:26.000Z,1.10
2024-01-27T01:47:53.009Z,2.35
2024-01-27T01:50:19.521Z,1.83
2024-01-27T01:52:47.231Z,3.65
2024-01-27T01:55:13.950Z,0.80
2024-01-27T01:57:40.471Z,1.15
2024-01-27T02:00:07.426Z,1.70
2024-01-27T02:02:33.923Z,1.02
2024-01-27T02:05:00.396Z,1.13
2024-01-27T02:07:26.864Z,0.50
2024-01-27T02:09:53.257Z,0.40
2024-01-27T02:12:19.715Z,0.85
2024-01-27T02:14:46.138Z,0.40
2024-01-27T02:17:12.943Z,1.35
2024-01-27T02:19:39.365Z,0.70
2024-01-27T02:22:05.824Z,0.50
2024-01-27T02:24:32.271Z,1.05
2024-01-27T02:26:58.717Z,0.93
2024-01-27T02:29:25.698Z,0.35
2024-01-27T02:31:52.098Z,1.65
2024-01-27T02:34:18.564Z,0.30
2024-01-27T02:36:45.190Z,0.98
2024-01-27T02:39:11.713Z,0.95
2024-01-27T02:41:40.423Z,1.65
2024-01-27T02:44:06.851Z,1.83
2024-01-27T02:46:33.245Z,1.25
2024-01-27T02:48:59.822Z,0.68
2024-01-27T02:51:26.359Z,1.58
2024-01-27T02:53:52.835Z,0.60
2024-01-27T02:56:19.271Z,0.50
2024-01-27T02:58:45.692Z,1.52
2024-01-27T03:01:12.275Z,1.30
2024-01-27T03:03:38.867Z,1.15
2024-01-27T03:06:05.865Z,1.10
2024-01-27T03:08:32.392Z,1.33
2024-01-27T03:10:58.861Z,1.95
2024-01-27T03:13:25.332Z,2.90
2024-01-27T03:15:53.317Z,1.98
2024-01-27T03:18:19.911Z,2.03
2024-01-27T03:20:46.442Z,2.42
2024-01-27T03:23:12.875Z,4.13
2024-01-27T03:25:39.266Z,3.22
2024-01-27T03:28:05.762Z,2.30
2024-01-27T03:30:32.253Z,2.95
2024-01-27T03:32:58.912Z,2.95
2024-01-27T03:35:25.433Z,1.65
2024-01-27T03:37:52.563Z,3.25
2024-01-27T03:40:19.313Z,4.72
2024-01-27T03:42:45.719Z,3.08
2024-01-27T03:45:12.106Z,4.10
2024-01-27T03:47:38.670Z,3.80
2024-01-27T03:50:05.370Z,3.15
2024-01-27T03:52:31.881Z,3.03
2024-01-27T03:54:58.297Z,3.63
2024-01-27T03:57:24.909Z,1.45
2024-01-27T03:59:51.359Z,1.88
2024-01-27T04:02:17.808Z,3.38
2024-01-27T04:04:44.368Z,3.20
2024-01-27T04:07:11.444Z,2.15
2024-01-27T04:09:38.162Z,3.80
2024-01-27T04:12:04.722Z,1.92
2024-01-27T04:14:31.312Z,4.18
2024-01-27T04:16:57.744Z,5.63
2024-01-27T04:19:24.380Z,2.90
2024-01-27T04:21:50.835Z,2.97
2024-01-27T04:24:17.287Z,3.13
2024-01-27T04:26:44.108Z,4.25
2024-01-27T04:29:10.575Z,2.45
2024-01-27T04:31:40.579Z,2.65
2024-01-27T04:34:07.116Z,4.95
2024-01-27T04:36:33.798Z,5.57
2024-01-27T04:39:00.430Z,2.33
2024-01-27T04:41:26.878Z,4.28
2024-01-27T04:43:54.294Z,3.80
2024-01-27T04:46:21.488Z,1.33
2024-01-27T04:48:48.443Z,3.50
2024-01-27T04:51:15.118Z,1.98
2024-01-27T04:53:41.554Z,3.53
2024-01-27T04:56:09.145Z,1.88
2024-01-27T04:58:36.038Z,1.88
2024-01-27T05:01:02.991Z,7.78
2024-01-27T05:03:29.558Z,2.80
2024-01-27T05:05:56.152Z,2.70
2024-01-27T05:08:22.683Z,3.58
2024-01-27T05:10:49.144Z,4.18
2024-01-27T05:13:15.617Z,2.92
2024-01-27T05:15:42.078Z,3.92
2024-01-27T05:18:08.934Z,2.78
2024-01-27T05:20:35.385Z,5.47
2024-01-27T05:23:01.824Z,2.05
2024-01-27T05:25:28.232Z,3.28
2024-01-27T05:27:54.614Z,3.53
2024-01-27T05:30:21.135Z,4.40
2024-01-27T05:32:47.724Z,5.05
2024-01-27T05:35:14.514Z,4.90
2024-01-27T05:37:41.128Z,3.00
2024-01-27T05:40:08.350Z,6.45
2024-01-27T05:42:34.794Z,3.17
2024-01-27T05:45:01.237Z,3.13
2024-01-27T05:47:27.702Z,11.20
2024-01-27T05:49:54.211Z,1.60
2024-01-27T05:52:25.001Z,2.10
2024-01-27T05:54:52.975Z,7.78
2024-01-27T05:57:19.494Z,4.57
2024-01-27T05:59:45.905Z,5.82
2024-01-27T06:02:12.395Z,4.20
2024-01-27T06:04:38.915Z,6.05
2024-01-27T06:07:05.629Z,8.70
2024-01-27T06:09:32.231Z,6.10
2024-01-27T06:12:04.361Z,4.70
2024-01-27T06:14:30.967Z,1.95
2024-01-27T06:16:58.082Z,2.85
2024-01-27T06:19:24.551Z,2.72
2024-01-27T06:21:51.040Z,3.90
2024-01-27T06:24:17.521Z,3.03
2024-01-27T06:26:43.932Z,1.30
2024-01-27T06:29:10.372Z,2.95
2024-01-27T06:31:36.744Z,1.95
2024-01-27T06:34:03.251Z,0.98
2024-01-27T06:36:29.769Z,3.15
2024-01-27T06:38:56.233Z,6.25
2024-01-27T06:41:22.681Z,5.30
2024-01-27T06:43:49.054Z,3.97
2024-01-27T06:46:15.656Z,5.78
2024-01-27T06:48:42.285Z,2.55
2024-01-27T06:51:08.822Z,1.67
2024-01-27T06:53:35.280Z,1.85
2024-01-27T06:56:01.701Z,3.25
2024-01-27T06:58:28.193Z,2.90
2024-01-27T07:00:55.228Z,2.05
2024-01-27T07:03:21.886Z,4.00
2024-01-27T07:05:48.551Z,3.50
2024-01-27T07:08:14.942Z,2.25
2024-01-27T07:10:41.342Z,3.25
2024-01-27T07:13:07.809Z,3.67
2024-01-27T07:15:34.360Z,3.40
2024-01-27T07:18:00.941Z,4.40
2024-01-27T07:20:27.402Z,2.85
2024-01-27T07:22:54.094Z,8.43
2024-01-27T07:25:20.518Z,7.13
2024-01-27T07:27:47.547Z,4.78
2024-01-27T07:30:14.233Z,7.07
2024-01-27T07:32:41.648Z,8.20
2024-01-27T07:35:08.431Z,9.30
2024-01-27T07:37:34.902Z,12.93
2024-01-27T07:40:01.391Z,18.48
2024-01-27T07:42:27.893Z,23.58
2024-01-27T07:44:54.467Z,17.73
2024-01-27T07:47:20.944Z,12.90
2024-01-27T07:49:47.514Z,7.00
2024-01-27T07:52:14.071Z,6.10
2024-01-27T07:54:41.394Z,6.65
2024-01-27T07:57:08.393Z,4.05
2024-01-27T07:59:34.977Z,4.15
2024-01-27T08:02:01.510Z,3.67
2024-01-27T08:04:28.180Z,1.80
2024-01-27T08:06:54.699Z,3.33
2024-01-27T08:09:21.383Z,1.58
2024-01-27T08:11:52.754Z,1.73
2024-01-27T08:14:19.582Z,4.13
2024-01-27T08:16:46.000Z,3.83
2024-01-27T08:19:12.542Z,3.28
2024-01-27T08:21:39.162Z,4.60
2024-01-27T08:24:05.764Z,3.75
2024-01-27T08:26:32.217Z,3.08
2024-01-27T08:28:59.751Z,3.78
2024-01-27T08:31:26.266Z,2.60
2024-01-27T08:33:53.534Z,2.83
2024-01-27T08:36:20.261Z,3.45
2024-01-27T08:38:46.688Z,4.43
2024-01-27T08:41:13.375Z,6.38
2024-01-27T08:43:39.860Z,3.65
2024-01-27T08:46:06.280Z,3.40
2024-01-27T08:48:33.051Z,3.65
2024-01-27T08:50:59.613Z,1.60
2024-01-27T08:53:26.019Z,2.22
2024-01-27T08:55:52.471Z,4.22
2024-01-27T08:58:18.910Z,3.35
2024-01-27T09:00:45.458Z,5.82
2024-01-27T09:03:13.669Z,5.38
2024-01-27T09:05:41.835Z,3.45
2024-01-27T09:08:09.004Z,3.35
2024-01-27T09:10:35.456Z,3.22
2024-01-27T09:13:01.926Z,3.75
2024-01-27T09:15:28.399Z,4.10
2024-01-27T09:17:54.903Z,3.58
2024-01-27T09:20:21.828Z,4.30
2024-01-27T09:22:48.885Z,2.75
2024-01-27T09:25:16.056Z,4.35
2024-01-27T09:27:42.741Z,3.13
2024-01-27T09:30:09.536Z,4.85
2024-01-27T09:32:36.217Z,5.13
2024-01-27T09:35:02.880Z,7.40
2024-01-27T09:37:29.916Z,4.55
2024-01-27T09:39:56.495Z,3.25
2024-01-27T09:42:23.850Z,5.38
2024-01-27T09:44:50.591Z,3.80
2024-01-27T09:47:17.254Z,6.70
2024-01-27T09:49:44.045Z,7.40
2024-01-27T09:52:10.612Z,4.35
2024-01-27T09:54:37.587Z,3.67
2024-01-27T09:57:04.572Z,5.22
2024-01-27T09:59:32.770Z,5.13
2024-01-27T10:01:59.895Z,4.93
2024-01-27T10:04:26.942Z,4.35
2024-01-27T10:06:54.354Z,3.33
2024-01-27T10:09:20.932Z,2.17
2024-01-27T10:11:48.747Z,3.20
2024-01-27T10:14:15.285Z,9.10
2024-01-27T10:16:42.723Z,6.60
2024-01-27T10:19:13.182Z,5.47
2024-01-27T10:21:39.733Z,4.50
2024-01-27T10:24:07.741Z,4.95
2024-01-27T10:26:34.758Z,4.38
2024-01-27T10:29:02.741Z,4.85
2024-01-27T10:31:29.978Z,6.63
2024-01-27T10:34:00.484Z,4.60
2024-01-27T10:36:30.169Z,5.57
2024-01-27T10:38:56.630Z,3.08
2024-01-27T10:41:27.632Z,3.80
2024-01-27T10:43:54.656Z,2.25
2024-01-27T10:46:24.682Z,7.03
2024-01-27T10:48:54.391Z,3.58
2024-01-27T10:51:28.068Z,6.20
2024-01-27T10:53:55.727Z,4.70
2024-01-27T10:56:22.987Z,4.95
2024-01-27T10:58:51.409Z,5.50
2024-01-27T11:01:20.541Z,4.55
2024-01-27T11:03:48.416Z,4.18
2024-01-27T11:06:15.753Z,6.47
2024-01-27T11:08:44.114Z,6.70
2024-01-27T11:11:11.413Z,3.65
2024-01-27T11:13:38.158Z,3.63
2024-01-27T11:16:05.519Z,3.72
2024-01-27T11:18:32.308Z,4.53
2024-01-27T11:20:59.946Z,4.20
2024-01-27T11:23:33.018Z,7.03
2024-01-27T11:26:09.455Z,3.90
2024-01-27T11:28:37.264Z,3.42
2024-01-27T11:31:07.153Z,6.90
2024-01-27T11:33:34.193Z,3.53
2024-01-27T11:36:05.902Z,7.50
2024-01-27T11:38:33.158Z,5.38
2024-01-27T11:41:02.881Z,7.07
2024-01-27T11:43:29.842Z,5.00
2024-01-27T11:46:00.558Z,3.03
2024-01-27T11:48:27.596Z,5.68
2024-01-27T11:51:07.135Z,5.13
2024-01-27T11:53:33.659Z,5.28
2024-01-27T11:56:01.431Z,5.45
2024-01-27T11:58:27.877Z,3.13
2024-01-27T12:00:54.589Z,1.20
2024-01-27T12:03:21.134Z,2.13
2024-01-27T12:05:48.327Z,3.55
2024-01-27T12:08:14.777Z,3.28
2024-01-27T12:10:41.253Z,2.75
2024-01-27T12:13:08.229Z,2.42
2024-01-27T12:15:35.309Z,1.58
2024-01-27T12:18:02.554Z,1.08
2024-01-27T12:20:29.243Z,1.38
2024-01-27T12:23:05.418Z,4.90
2024-01-27T12:25:31.975Z,1.75
2024-01-27T12:28:02.050Z,3.97
2024-01-27T12:30:28.547Z,1.95
2024-01-27T12:32:55.155Z,1.60
2024-01-27T12:35:21.824Z,1.35
2024-01-27T12:37:48.332Z,0.63
2024-01-27T12:40:23.518Z,1.38
2024-01-27T12:42:51.046Z,0.47
2024-01-27T12:45:17.545Z,0.40
2024-01-27T12:47:44.117Z,1.10
2024-01-27T12:50:10.852Z,0.98
2024-01-27T12:52:38.092Z,1.40
2024-01-27T12:55:05.374Z,2.70
2024-01-27T12:57:32.108Z,1.08
2024-01-27T12:59:58.594Z,2.13
2024-01-27T13:02:25.021Z,0.93
2024-01-27T13:04:51.416Z,1.40
2024-01-27T13:07:17.892Z,2.28
2024-01-27T13:09:44.320Z,2.50
2024-01-27T13:12:10.801Z,1.10
2024-01-27T13:14:37.444Z,1.48
2024-01-27T13:17:04.480Z,1.98
2024-01-27T13:19:32.002Z,1.10
2024-01-27T13:21:58.527Z,1.10
2024-01-27T13:24:26.485Z,0.93
2024-01-27T13:26:53.121Z,0.28
2024-01-27T13:29:19.522Z,0.20
2024-01-27T13:31:46.079Z,0.50
2024-01-27T13:34:12.595Z,0.20
2024-01-27T13:36:39.276Z,0.93
2024-01-27T13:39:05.848Z,0.20
2024-01-27T13:41:32.355Z,0.28
2024-01-27T13:43:58.792Z,0.40
2024-01-27T13:46:26.399Z,1.10
2024-01-27T13:48:53.221Z,1.08
2024-01-27T13:51:19.923Z,1.05
2024-01-27T13:53:47.877Z,0.30
2024-01-27T13:56:15.274Z,0.25
2024-01-27T13:58:42.094Z,0.85
2024-01-27T14:01:09.999Z,0.30
2024-01-27T14:03:38.872Z,0.82
2024-01-27T14:06:05.945Z,0.15
2024-01-27T14:08:32.480Z,0.13
2024-01-27T14:10:58.884Z,0.10
2024-01-27T14:13:25.314Z,0.30
2024-01-27T14:15:51.683Z,0.20
2024-01-27T14:18:22.909Z,0.13
2024-01-27T14:20:50.621Z,0.17
2024-01-27T14:23:17.670Z,0.15
2024-01-27T14:25:47.386Z,0.57
2024-01-27T14:28:15.223Z,1.05
2024-01-27T14:30:42.055Z,0.35
2024-01-27T14:33:08.818Z,0.10
2024-01-27T14:35:35.394Z,0.10
2024-01-27T14:38:02.400Z,0.30
2024-01-27T14:40:28.830Z,0.43
2024-01-27T14:42:55.356Z,0.30
2024-01-27T14:45:21.938Z,0.65
2024-01-27T14:47:50.077Z,0.10
2024-01-27T14:50:16.992Z,0.85
2024-01-27T14:52:43.531Z,0.10
2024-01-27T14:55:12.283Z,1.55
2024-01-27T14:57:38.926Z,0.10
2024-01-27T15:00:05.880Z,0.10
2024-01-27T15:02:32.575Z,0.10
2024-01-27T15:04:59.001Z,0.45
2024-01-27T15:07:30.693Z,0.85
2024-01-27T15:09:57.411Z,0.30
2024-01-27T15:12:25.274Z,0.10
2024-01-27T15:14:51.710Z,0.30
2024-01-27T15:17:18.946Z,0.10
2024-01-27T15:19:45.520Z,0.13
2024-01-27T15:22:12.000Z,0.10
2024-01-27T15:24:40.589Z,0.10
2024-01-27T15:27:11.611Z,0.10
2024-01-27T15:29:39.035Z,0.10
2024-01-27T15:32:05.685Z,0.10
2024-01-27T15:34:32.239Z,0.10
2024-01-27T15:36:59.297Z,0.55
2024-01-27T15:39:25.861Z,0.10
2024-01-27T15:41:52.340Z,0.10
2024-01-27T15:44:19.424Z,0.13
2024-01-27T15:46:45.805Z,0.30
2024-01-27T15:49:12.327Z,1.13
2024-01-27T15:51:39.619Z,0.10
2024-01-27T15:54:06.124Z,0.40
2024-01-27T15:56:32.674Z,0.10
2024-01-27T15:59:00.601Z,0.10
2024-01-27T16:01:28.099Z,0.30
2024-01-27T16:03:54.523Z,0.10
2024-01-27T16:06:21.199Z,0.10
2024-01-27T16:08:47.644Z,0.10
2024-01-27T16:11:14.045Z,0.10
2024-01-27T16:13:40.488Z,0.10
2024-01-27T16:16:07.466Z,0.10
2024-01-27T16:18:34.173Z,0.10
2024-01-27T16:21:00.656Z,0.10
2024-01-27T16:23:27.097Z,0.10
2024-01-27T16:25:53.500Z,0.10
2024-01-27T16:28:19.889Z,0.10
2024-01-27T16:30:46.379Z,0.20
2024-01-27T16:33:12.993Z,0.13
2024-01-27T16:35:39.490Z,0.10
2024-01-27T16:38:06.011Z,0.40
2024-01-27T16:40:32.453Z,0.88
2024-01-27T16:42:58.896Z,0.20
2024-01-27T16:45:25.534Z,0.30
2024-01-27T16:47:52.073Z,0.30
2024-01-27T16:50:18.519Z,0.32
2024-01-27T16:52:44.906Z,0.32
2024-01-27T16:55:11.569Z,0.20
2024-01-27T16:57:37.953Z,0.30
2024-01-27T17:00:04.744Z,0.20
2024-01-27T17:02:31.147Z,0.10
2024-01-27T17:05:03.680Z,0.20
2024-01-27T17:07:32.292Z,0.20
2024-01-27T17:09:59.837Z,0.30
2024-01-27T17:12:26.339Z,0.22
2024-01-27T17:14:54.439Z,0.20
2024-01-27T17:17:21.637Z,0.20
2024-01-27T17:19:48.709Z,0.35
2024-01-27T17:22:15.141Z,0.20
2024-01-27T17:24:41.862Z,0.20
2024-01-27T17:27:09.264Z,0.95
2024-01-27T17:29:36.012Z,0.38
2024-01-27T17:32:02.525Z,0.30
2024-01-27T17:34:29.069Z,1.65
2024-01-27T17:36:56.683Z,0.35
2024-01-27T17:39:24.340Z,0.70
2024-01-27T17:41:50.836Z,0.70
2024-01-27T17:44:17.383Z,1.02
2024-01-27T17:46:43.816Z,2.88
2024-01-27T17:49:10.373Z,1.63
2024-01-27T17:51:38.402Z,1.90
2024-01-27T17:54:05.237Z,2.13
2024-01-27T17:56:31.750Z,2.13
2024-01-27T17:58:58.445Z,3.97
2024-01-27T18:01:25.235Z,2.67
2024-01-27T18:03:51.874Z,3.15
2024-01-27T18:06:18.513Z,2.38
2024-01-27T18:08:44.941Z,4.80
2024-01-27T18:11:11.407Z,4.18
2024-01-27T18:13:37.888Z,4.80
2024-01-27T18:16:05.642Z,3.63
2024-01-27T18:18:32.218Z,2.85
2024-01-27T18:20:58.849Z,3.22
2024-01-27T18:23:25.635Z,5.93
2024-01-27T18:25:52.051Z,4.78
2024-01-27T18:28:18.442Z,4.97
2024-01-27T18:30:44.935Z,3.55
2024-01-27T18:33:11.490Z,2.47
2024-01-27T18:35:38.547Z,3.67
2024-01-27T18:38:05.026Z,4.85
2024-01-27T18:40:31.543Z,2.78
2024-01-27T18:42:57.913Z,1.75
2024-01-27T18:45:24.889Z,1.33
2024-01-27T18:47:51.495Z,1.42
2024-01-27T18:50:17.981Z,1.48
2024-01-27T18:52:44.996Z,1.00
2024-01-27T18:55:13.244Z,2.15
2024-01-27T18:57:39.707Z,4.13
2024-01-27T19:00:09.428Z,2.83
2024-01-27T19:02:35.864Z,2.92
2024-01-27T19:05:06.266Z,3.03
2024-01-27T19:07:32.855Z,3.30
2024-01-27T19:09:59.403Z,3.05
2024-01-27T19:12:25.858Z,2.35
2024-01-27T19:14:52.508Z,2.97
2024-01-27T19:17:18.962Z,2.55
2024-01-27T19:19:46.457Z,2.13
2024-01-27T19:22:12.936Z,4.03
2024-01-27T19:24:39.419Z,2.40
2024-01-27T19:27:05.950Z,3.95
2024-01-27T19:29:32.490Z,17.35
2024-01-27T19:32:00.415Z,20.45
2024-01-27T19:34:31.979Z,17.45
2024-01-27T19:36:59.170Z,14.18
2024-01-27T19:39:25.825Z,11.57
2024-01-27T19:41:52.481Z,9.15
2024-01-27T19:44:19.294Z,7.28
2024-01-27T19:46:45.733Z,6.90
2024-01-27T19:49:12.344Z,6.85
2024-01-27T19:51:45.089Z,4.63
2024-01-27T19:54:11.634Z,5.30
2024-01-27T19:56:38.133Z,4.80
2024-01-27T19:59:04.542Z,3.08
2024-01-27T20:01:31.028Z,2.40
2024-01-27T20:03:57.475Z,2.65
2024-01-27T20:06:24.092Z,2.60
2024-01-27T20:08:50.648Z,2.72
2024-01-27T20:11:17.050Z,3.17
2024-01-27T20:13:44.233Z,1.70
2024-01-27T20:16:10.730Z,1.50
2024-01-27T20:18:37.255Z,1.25
2024-01-27T20:21:04.024Z,1.63
2024-01-27T20:23:30.602Z,0.60
2024-01-27T20:25:57.381Z,0.60
2024-01-27T20:28:25.734Z,1.30
2024-01-27T20:30:52.397Z,0.65
2024-01-27T20:33:21.649Z,1.50
2024-01-27T20:35:51.838Z,2.05
2024-01-27T20:38:18.272Z,1.85
2024-01-27T20:40:44.738Z,0.85
2024-01-27T20:43:11.150Z,1.15
2024-01-27T20:45:37.563Z,0.90
2024-01-27T20:48:04.542Z,0.68
2024-01-27T20:50:30.998Z,1.85
2024-01-27T20:52:57.521Z,0.63
2024-01-27T20:55:24.056Z,0.80
2024-01-27T20:57:50.524Z,1.33
2024-01-27T21:00:17.126Z,1.55
2024-01-27T21:02:43.522Z,0.73
2024-01-27T21:05:09.961Z,1.05
2024-01-27T21:07:36.468Z,0.57
2024-01-27T21:10:02.948Z,0.60
2024-01-27T21:12:29.435Z,0.65
2024-01-27T21:14:55.819Z,1.10
2024-01-27T21:17:22.252Z,1.63
2024-01-27T21:19:51.682Z,0.98
2024-01-27T21:22:18.343Z,0.47
2024-01-27T21:24:45.043Z,0.57
2024-01-27T21:27:11.552Z,0.40
2024-01-27T21:29:37.976Z,0.50
2024-01-27T21:32:05.380Z,0.50
2024-01-27T21:34:31.961Z,0.93
2024-01-27T21:36:58.463Z,3.28
2024-01-27T21:39:27.139Z,2.72
2024-01-27T21:41:53.573Z,2.22
2024-01-27T21:44:20.468Z,5.60
2024-01-27T21:46:46.838Z,2.15
2024-01-27T21:49:13.434Z,1.25
2024-01-27T21:51:39.990Z,0.88
2024-01-27T21:54:06.545Z,1.33
2024-01-27T21:56:34.158Z,1.35
2024-01-27T21:59:01.044Z,1.10
2024-01-27T22:01:27.668Z,0.70
2024-01-27T22:03:54.284Z,0.60
2024-01-27T22:06:21.950Z,3.75
2024-01-27T22:08:49.826Z,2.17
2024-01-27T22:11:16.324Z,0.70
2024-01-27T22:13:42.748Z,0.60
2024-01-27T22:16:09.143Z,0.60
2024-01-27T22:18:35.908Z,0.47
2024-01-27T22:21:02.533Z,0.90
2024-01-27T22:23:29.374Z,1.02
2024-01-27T22:25:55.755Z,0.60
2024-01-27T22:28:22.212Z,2.72
2024-01-27T22:30:48.733Z,2.20
2024-01-27T22:33:16.156Z,4.38
2024-01-27T22:35:42.626Z,5.18
2024-01-27T22:38:09.472Z,5.75
2024-01-27T22:40:38.128Z,4.38
2024-01-27T22:43:05.093Z,5.43
2024-01-27T22:45:31.568Z,3.78
2024-01-27T22:47:58.173Z,2.03
2024-01-27T22:50:24.679Z,2.03
2024-01-27T22:52:51.106Z,2.17
2024-01-27T22:55:17.506Z,0.80
2024-01-27T22:57:44.010Z,1.30
2024-01-27T23:00:34.308Z,1.52
2024-01-27T23:03:01.709Z,1.77
2024-01-27T23:05:28.162Z,4.05
2024-01-27T23:07:54.583Z,1.45
2024-01-27T23:10:20.991Z,2.80
2024-01-27T23:12:47.429Z,5.15
2024-01-27T23:15:14.129Z,2.90
2024-01-27T23:17:40.672Z,2.63
2024-01-27T23:20:07.514Z,3.00
2024-01-27T23:22:34.984Z,1.60
2024-01-27T23:25:02.115Z,1.48
2024-01-27T23:27:28.586Z,1.77
2024-01-27T23:29:54.983Z,1.60
2024-01-27T23:32:22.965Z,1.45
2024-01-27T23:34:49.538Z,0.73
2024-01-27T23:37:16.089Z,1.25
2024-01-27T23:39:44.299Z,1.42
2024-01-27T23:42:10.829Z,1.35
2024-01-27T23:44:37.270Z,0.82
2024-01-27T23:47:04.082Z,0.95
2024-01-27T23:49:30.659Z,2.03
2024-01-27T23:51:57.104Z,1.35
2024-01-27T23:54:23.607Z,2.55
2024-01-27T23:56:50.008Z,0.82
2024-01-27T23:59:16.414Z,1.90
